Time;durP1;ratioP1;P1;durP2;ratioP2;P2;SDS_P1;SDS_P2;PMS_P1;PMS_P2;Temp;Humidity;BMP_temperature;BMP_pressure;BME280_temperature;BME280_humidity;BME280_pressure;Samples;Min_cycle;Max_cycle;Signal;HPM_P1;HPM_P2
2021/08/11 00:01:51;;;;;;;4.25;3.33;;;19.10;64.00;;;;;;5070320;28;20052;-81
2021/08/11 00:04:18;;;;;;;4.03;2.97;;;19.10;64.10;;;;;;5035683;28;20040;-81
2021/08/11 00:06:44;;;;;;;3.60;3.20;;;19.10;64.20;;;;;;5069441;28;20504;-81
2021/08/11 00:09:09;;;;;;;3.67;3.38;;;19.10;64.30;;;;;;5069675;28;20025;-80
2021/08/11 00:11:35;;;;;;;4.95;3.03;;;19.10;64.40;;;;;;5069681;28;20576;-81
2021/08/11 00:14:02;;;;;;;5.47;2.83;;;19.00;64.30;;;;;;5061043;28;20040;-81
2021/08/11 00:16:29;;;;;;;4.53;3.60;;;19.00;64.40;;;;;;5069526;28;20456;-81
2021/08/11 00:18:55;;;;;;;4.07;2.97;;;19.00;64.40;;;;;;5069026;28;20040;-80
2021/08/11 00:21:21;;;;;;;3.33;2.97;;;18.90;64.30;;;;;;5069488;28;20479;-81
2021/08/11 00:23:50;;;;;;;6.13;3.35;;;18.90;64.40;;;;;;5069472;28;20422;-80
2021/08/11 00:26:16;;;;;;;4.68;2.97;;;18.90;64.40;;;;;;5068273;28;20033;-80
2021/08/11 00:28:42;;;;;;;6.00;3.50;;;18.80;64.30;;;;;;5050821;28;20082;-80
2021/08/11 00:31:09;;;;;;;4.18;3.28;;;18.90;64.50;;;;;;5051584;28;20570;-80
2021/08/11 00:33:36;;;;;;;3.83;3.38;;;18.80;64.40;;;;;;5050677;28;20055;-81
2021/08/11 00:36:03;;;;;;;4.35;3.50;;;18.70;64.30;;;;;;5051100;28;20070;-82
2021/08/11 00:38:29;;;;;;;3.80;3.03;;;18.80;64.60;;;;;;5067624;28;20032;-82
2021/08/11 00:41:03;;;;;;;3.50;3.10;;;18.70;64.50;;;;;;5036145;28;20110;-82
2021/08/11 00:43:30;;;;;;;4.35;3.00;;;18.70;64.60;;;;;;5051048;28;20120;-82
2021/08/11 00:45:56;;;;;;;3.20;2.90;;;18.60;64.50;;;;;;5067169;28;20043;-81
2021/08/11 00:48:25;;;;;;;3.50;3.20;;;18.60;64.60;;;;;;5067424;28;20395;-82
2021/08/11 00:50:57;;;;;;;3.40;3.10;;;18.60;64.70;;;;;;5051552;28;20066;-81
2021/08/11 00:53:27;;;;;;;4.25;3.05;;;18.60;64.80;;;;;;5050465;28;20024;-81
2021/08/11 00:55:58;;;;;;;3.60;3.30;;;18.50;64.70;;;;;;5051181;28;20483;-83
2021/08/11 00:58:25;;;;;;;3.55;2.78;;;18.60;64.90;;;;;;5050671;28;20024;-81
2021/08/11 01:00:54;;;;;;;3.25;2.80;;;18.50;64.80;;;;;;5050885;28;20043;-81
2021/08/11 01:03:22;;;;;;;3.47;2.65;;;18.50;64.80;;;;;;5067466;28;20376;-80
2021/08/11 01:05:52;;;;;;;3.53;3.20;;;18.50;65.00;;;;;;5050916;28;20031;-81
2021/08/11 01:08:20;;;;;;;5.82;3.03;;;18.50;65.00;;;;;;5067233;28;20033;-81
2021/08/11 01:10:48;;;;;;;3.72;3.28;;;18.40;64.90;;;;;;5050794;28;20037;-82
2021/08/11 01:13:15;;;;;;;3.55;2.60;;;18.40;64.90;;;;;;5068221;28;20030;-80
2021/08/11 01:15:47;;;;;;;3.85;3.45;;;18.40;65.00;;;;;;5050140;28;20163;-80
2021/08/11 01:18:19;;;;;;;4.00;3.17;;;18.40;65.00;;;;;;5050688;28;20029;-81
2021/08/11 01:21:06;;;;;;;3.65;3.05;;;18.40;65.10;;;;;;5067199;28;20510;-80
2021/08/11 01:23:59;;;;;;;2.85;2.65;;;18.40;65.30;;;;;;5067246;28;20116;-81
2021/08/11 01:26:59;;;;;;;4.75;3.15;;;18.40;65.30;;;;;;5050551;28;20500;-81
2021/08/11 01:29:38;;;;;;;6.47;3.03;;;18.30;65.00;;;;;;5050176;28;20020;-80
2021/08/11 01:32:14;;;;;;;4.13;2.70;;;18.30;65.00;;;;;;5073357;28;20044;-79
2021/08/11 01:34:45;;;;;;;3.00;2.70;;;18.30;65.20;;;;;;5072920;28;20087;-81
2021/08/11 01:37:18;;;;;;;3.65;2.58;;;18.30;65.10;;;;;;5051715;28;20107;-80
2021/08/11 01:39:52;;;;;;;5.43;3.13;;;18.30;65.20;;;;;;5051730;28;20033;-79
2021/08/11 01:42:31;;;;;;;3.15;2.58;;;18.20;65.10;;;;;;5068550;28;20024;-80
2021/08/11 01:45:11;;;;;;;3.15;2.60;;;18.20;65.20;;;;;;5051536;28;20040;-80
2021/08/11 01:48:05;;;;;;;3.92;2.92;;;18.30;65.40;;;;;;5058897;28;20056;-79
2021/08/11 01:50:39;;;;;;;3.13;2.45;;;18.20;65.30;;;;;;5060004;28;20123;-80
2021/08/11 01:53:10;;;;;;;3.92;3.15;;;18.20;65.30;;;;;;5087300;28;20379;-80
2021/08/11 01:55:40;;;;;;;4.03;2.78;;;18.20;65.40;;;;;;5075104;28;20028;-80
2021/08/11 01:58:07;;;;;;;3.70;3.00;;;18.10;65.20;;;;;;5091512;28;20475;-82
2021/08/11 02:00:34;;;;;;;3.22;3.00;;;18.10;65.30;;;;;;5074213;28;20368;-80
2021/08/11 02:03:05;;;;;;;3.03;2.72;;;18.10;65.40;;;;;;5058613;28;20562;-80
2021/08/11 02:05:36;;;;;;;3.42;3.10;;;18.10;65.50;;;;;;5074133;28;20032;-80
2021/08/11 02:08:16;;;;;;;5.28;3.15;;;18.00;65.30;;;;;;5091690;28;20111;-80
2021/08/11 02:10:43;;;;;;;3.38;2.47;;;18.00;65.40;;;;;;5074224;28;20106;-79
2021/08/11 02:13:10;;;;;;;3.60;2.95;;;18.00;65.50;;;;;;5091004;28;20028;-80
2021/08/11 02:15:37;;;;;;;3.70;2.90;;;18.00;65.50;;;;;;5074005;28;20035;-81
2021/08/11 02:18:04;;;;;;;4.47;2.88;;;18.00;65.50;;;;;;5071617;28;20395;-80
2021/08/11 02:20:31;;;;;;;3.38;3.08;;;18.00;65.70;;;;;;5054215;28;20028;-81
2021/08/11 02:23:00;;;;;;;3.80;2.55;;;17.90;65.50;;;;;;5054508;28;20086;-80
2021/08/11 02:25:27;;;;;;;3.53;3.22;;;17.90;65.50;;;;;;5054146;28;20513;-81
2021/08/11 02:28:10;;;;;;;2.95;2.75;;;17.90;65.60;;;;;;5070293;28;20036;-81
2021/08/11 02:31:02;;;;;;;4.05;3.10;;;17.80;65.60;;;;;;5053633;28;20040;-80
2021/08/11 02:33:56;;;;;;;3.38;2.53;;;17.90;65.70;;;;;;5054049;28;20101;-79
2021/08/11 02:36:32;;;;;;;3.72;2.88;;;17.80;65.60;;;;;;5054213;28;20035;-80
2021/08/11 02:39:11;;;;;;;3.15;2.72;;;17.80;65.60;;;;;;5070114;28;20029;-80
2021/08/11 02:41:56;;;;;;;3.33;2.88;;;17.80;65.60;;;;;;5070691;28;20033;-81
2021/08/11 02:44:40;;;;;;;3.05;2.72;;;17.80;65.70;;;;;;5053910;28;20033;-84
2021/08/11 02:47:08;;;;;;;3.75;2.85;;;17.80;65.70;;;;;;5053307;28;20043;-83
2021/08/11 02:49:37;;;;;;;4.30;3.00;;;17.70;65.50;;;;;;5053832;28;20039;-80
2021/08/11 02:52:07;;;;;;;3.15;2.83;;;17.70;65.50;;;;;;5070216;28;20036;-81
2021/08/11 02:54:35;;;;;;;3.50;2.90;;;17.60;65.40;;;;;;5070765;28;20210;-81
2021/08/11 02:57:02;;;;;;;3.95;3.05;;;17.60;65.50;;;;;;5070568;28;20040;-81
2021/08/11 02:59:29;;;;;;;3.40;2.80;;;17.60;65.60;;;;;;5053705;28;20074;-80
2021/08/11 03:01:56;;;;;;;3.28;2.83;;;17.60;65.70;;;;;;5052882;28;20029;-80
2021/08/11 03:04:23;;;;;;;3.50;2.85;;;17.50;65.60;;;;;;5070505;28;20038;-80
2021/08/11 03:06:49;;;;;;;3.10;2.60;;;17.50;65.60;;;;;;5053859;28;20060;-80
2021/08/11 03:09:15;;;;;;;3.33;2.80;;;17.50;65.70;;;;;;5071058;28;20083;-80
2021/08/11 03:11:42;;;;;;;3.70;2.92;;;17.40;65.60;;;;;;5071144;28;20051;-80
2021/08/11 03:14:12;;;;;;;3.67;2.67;;;17.40;65.60;;;;;;5071111;28;20120;-80
2021/08/11 03:16:38;;;;;;;2.92;2.38;;;17.40;65.70;;;;;;5053089;28;20117;-80
2021/08/11 03:19:06;;;;;;;2.72;2.53;;;17.40;65.80;;;;;;5069823;28;20555;-80
2021/08/11 03:21:34;;;;;;;3.40;2.75;;;17.40;65.80;;;;;;5053358;28;20119;-79
2021/08/11 03:24:01;;;;;;;3.13;2.92;;;17.30;65.70;;;;;;5053490;28;20477;-80
2021/08/11 03:26:28;;;;;;;3.38;2.65;;;17.30;65.70;;;;;;5053013;28;20086;-78
2021/08/11 03:29:00;;;;;;;3.33;3.03;;;17.30;65.70;;;;;;5053362;28;20430;-80
2021/08/11 03:31:28;;;;;;;3.97;2.97;;;17.30;65.80;;;;;;5052631;28;20037;-79
2021/08/11 03:33:54;;;;;;;4.60;2.80;;;17.20;65.70;;;;;;5053442;28;20127;-81
2021/08/11 03:36:20;;;;;;;2.83;2.38;;;17.20;65.70;;;;;;5069670;28;20024;-81
2021/08/11 03:38:46;;;;;;;2.67;2.47;;;17.20;65.70;;;;;;5053350;28;20027;-80
2021/08/11 03:41:13;;;;;;;3.08;2.78;;;17.20;65.80;;;;;;5069780;28;20114;-81
2021/08/11 03:43:39;;;;;;;3.08;2.22;;;17.10;65.60;;;;;;5053244;28;20029;-81
2021/08/11 03:46:06;;;;;;;5.75;2.42;;;17.10;65.70;;;;;;5052854;28;20291;-80
2021/08/11 03:48:32;;;;;;;2.90;2.60;;;17.10;65.80;;;;;;5071333;28;20112;-81
2021/08/11 03:50:58;;;;;;;2.55;2.35;;;17.10;65.90;;;;;;5070003;28;20037;-80
2021/08/11 03:53:24;;;;;;;4.78;2.65;;;17.00;65.80;;;;;;5069535;28;20040;-83
2021/08/11 03:55:50;;;;;;;4.25;3.17;;;17.00;65.80;;;;;;5053652;28;20056;-80
2021/08/11 03:58:16;;;;;;;3.35;2.92;;;17.00;65.90;;;;;;5078501;28;20356;-82
2021/08/11 04:00:44;;;;;;;2.65;2.45;;;17.00;65.90;;;;;;5087888;28;20039;-79
2021/08/11 04:03:10;;;;;;;3.33;2.50;;;17.00;65.90;;;;;;5081308;28;20104;-80
2021/08/11 04:05:36;;;;;;;5.40;3.00;;;16.90;65.80;;;;;;5078823;28;20440;-81
2021/08/11 04:08:02;;;;;;;3.20;2.80;;;16.90;65.90;;;;;;5090999;28;20032;-81
2021/08/11 04:10:28;;;;;;;3.03;2.58;;;16.90;66.00;;;;;;5091111;28;20032;-80
2021/08/11 04:12:54;;;;;;;3.05;2.45;;;16.90;66.00;;;;;;5093036;28;20104;-80
2021/08/11 04:15:20;;;;;;;3.00;2.28;;;16.80;65.80;;;;;;5087001;28;20039;-80
2021/08/11 04:17:46;;;;;;;2.47;2.28;;;16.80;65.90;;;;;;5085745;28;20488;-80
2021/08/11 04:20:13;;;;;;;2.55;2.35;;;16.80;66.00;;;;;;5091901;28;20035;-80
2021/08/11 04:22:39;;;;;;;3.42;2.97;;;16.80;66.00;;;;;;5074750;28;20024;-80
2021/08/11 04:25:06;;;;;;;2.85;2.63;;;16.80;66.00;;;;;;5074446;28;20039;-80
2021/08/11 04:27:32;;;;;;;2.90;2.55;;;16.80;66.10;;;;;;5074255;28;20112;-80
2021/08/11 04:29:57;;;;;;;2.97;2.63;;;16.80;66.10;;;;;;5074330;28;20111;-81
2021/08/11 04:32:24;;;;;;;3.70;2.97;;;16.80;66.20;;;;;;5074196;28;20045;-82
2021/08/11 04:34:49;;;;;;;3.00;2.70;;;16.70;66.00;;;;;;5056405;28;20430;-80
2021/08/11 04:37:16;;;;;;;2.92;2.58;;;16.70;66.00;;;;;;5074071;28;20024;-82
2021/08/11 04:39:42;;;;;;;4.80;2.70;;;16.70;66.00;;;;;;5073111;28;20028;-79
2021/08/11 04:42:08;;;;;;;3.70;3.00;;;16.70;66.10;;;;;;5073973;28;20387;-80
2021/08/11 04:44:34;;;;;;;2.90;2.53;;;16.70;66.10;;;;;;5073805;28;20032;-84
2021/08/11 04:47:01;;;;;;;2.80;2.50;;;16.60;65.90;;;;;;5073894;28;20059;-79
2021/08/11 04:49:27;;;;;;;4.32;2.60;;;16.60;66.00;;;;;;5072570;28;20073;-79
2021/08/11 04:51:53;;;;;;;3.95;2.55;;;16.60;66.00;;;;;;5073642;28;20044;-80
2021/08/11 04:54:19;;;;;;;2.53;2.28;;;16.60;66.00;;;;;;5052839;28;20036;-85
2021/08/11 04:56:45;;;;;;;2.95;2.50;;;16.60;66.00;;;;;;5070326;28;20086;-78
2021/08/11 04:59:11;;;;;;;3.40;2.75;;;16.60;66.10;;;;;;5081058;28;20028;-78
2021/08/11 05:01:36;;;;;;;2.45;2.25;;;16.50;65.90;;;;;;5089893;28;20036;-77
2021/08/11 05:04:02;;;;;;;3.47;2.80;;;16.50;66.00;;;;;;5062272;28;20035;-82
2021/08/11 05:06:29;;;;;;;2.67;2.47;;;16.50;66.00;;;;;;5076889;28;20071;-81
2021/08/11 05:08:56;;;;;;;3.30;3.00;;;16.50;66.10;;;;;;5078778;28;20452;-81
2021/08/11 05:11:22;;;;;;;2.83;2.50;;;16.50;66.10;;;;;;5085174;28;20491;-81
2021/08/11 05:13:49;;;;;;;2.80;2.55;;;16.50;66.20;;;;;;5049062;28;20288;-81
2021/08/11 05:16:15;;;;;;;3.22;2.50;;;16.50;66.20;;;;;;5066745;28;20090;-81
2021/08/11 05:18:41;;;;;;;3.20;2.33;;;16.40;66.00;;;;;;5048749;28;20032;-81
2021/08/11 05:21:06;;;;;;;2.88;2.60;;;16.40;66.00;;;;;;5065214;28;20036;-88
2021/08/11 05:23:32;;;;;;;3.05;2.75;;;16.40;66.00;;;;;;5080849;28;20027;-84
2021/08/11 05:25:58;;;;;;;2.97;2.55;;;16.40;66.10;;;;;;5085290;28;20032;-87
2021/08/11 05:28:24;;;;;;;6.03;3.42;;;16.40;66.10;;;;;;5090059;28;20028;-82
2021/08/11 05:30:50;;;;;;;5.03;3.08;;;16.40;66.20;;;;;;5087866;28;20044;-84
2021/08/11 05:33:16;;;;;;;5.07;3.50;;;16.40;66.30;;;;;;5073914;28;20395;-86
2021/08/11 05:35:42;;;;;;;2.97;2.70;;;16.40;66.30;;;;;;5067572;28;20085;-85
2021/08/11 05:38:09;;;;;;;5.68;3.15;;;16.40;66.30;;;;;;5075893;28;20020;-85
2021/08/11 05:40:35;;;;;;;3.88;3.17;;;16.40;66.30;;;;;;5088261;28;20064;-79
2021/08/11 05:43:01;;;;;;;7.88;3.83;;;16.40;66.20;;;;;;5070966;28;20059;-84
2021/08/11 05:45:26;;;;;;;6.50;3.97;;;16.40;66.20;;;;;;5078659;28;20060;-81
2021/08/11 05:47:52;;;;;;;3.58;3.28;;;16.40;66.20;;;;;;5082131;28;20035;-82
2021/08/11 05:50:18;;;;;;;4.85;3.63;;;16.40;66.20;;;;;;5088420;28;20031;-82
2021/08/11 05:52:45;;;;;;;6.55;4.07;;;16.40;66.30;;;;;;5084984;28;20482;-82
2021/08/11 05:55:11;;;;;;;4.50;4.10;;;16.40;66.30;;;;;;5087219;28;20528;-84
2021/08/11 05:57:39;;;;;;;4.93;3.72;;;16.40;66.40;;;;;;5087936;28;20118;-80
2021/08/11 06:00:06;;;;;;;6.40;4.15;;;16.40;66.40;;;;;;5084955;28;20028;-81
2021/08/11 06:02:34;;;;;;;6.10;4.22;;;16.40;66.60;;;;;;5079823;28;20174;-82
2021/08/11 06:05:13;;;;;;;5.38;3.70;;;16.40;66.70;;;;;;5057579;28;20495;-81
2021/08/11 06:07:39;;;;;;;3.70;3.33;;;16.50;66.90;;;;;;5083380;28;20036;-82
2021/08/11 06:10:07;;;;;;;7.32;3.25;;;16.50;67.00;;;;;;5038097;28;20028;-83
2021/08/11 06:12:33;;;;;;;6.90;3.60;;;16.50;67.00;;;;;;5065162;28;20032;-83
2021/08/11 06:15:00;;;;;;;5.53;3.35;;;16.50;67.00;;;;;;5044224;28;20071;-86
2021/08/11 06:17:26;;;;;;;5.65;3.28;;;16.50;67.10;;;;;;5049926;28;20028;-87
2021/08/11 06:19:52;;;;;;;6.68;4.15;;;16.50;67.20;;;;;;5050704;28;20111;-90
2021/08/11 06:22:18;;;;;;;4.47;3.45;;;16.60;67.50;;;;;;5026668;28;20166;-86
2021/08/11 06:24:44;;;;;;;4.15;3.47;;;16.60;67.60;;;;;;5050000;28;20119;-85
2021/08/11 06:27:10;;;;;;;6.07;3.47;;;16.70;67.90;;;;;;5059047;28;20047;-83
2021/08/11 06:29:36;;;;;;;4.25;3.10;;;16.80;68.30;;;;;;5052199;28;20039;-82
2021/08/11 06:32:05;;;;;;;4.65;3.50;;;16.80;68.40;;;;;;5032734;28;20057;-83
2021/08/11 06:34:32;;;;;;;6.22;3.83;;;17.00;68.80;;;;;;5046853;28;20423;-83
2021/08/11 06:36:58;;;;;;;5.30;3.47;;;17.10;69.00;;;;;;5045466;28;20029;-83
2021/08/11 06:39:25;;;;;;;7.15;4.20;;;17.20;69.20;;;;;;5045894;28;20028;-82
2021/08/11 06:41:51;;;;;;;5.05;3.50;;;17.40;69.60;;;;;;5045744;28;20514;-84
2021/08/11 06:44:19;;;;;;;3.80;3.17;;;17.50;69.70;;;;;;5046887;28;20033;-84
2021/08/11 06:46:46;;;;;;;3.95;3.08;;;17.70;69.90;;;;;;5041392;28;20561;-87
2021/08/11 06:49:13;;;;;;;4.75;3.90;;;17.90;70.20;;;;;;5062504;28;20576;-85
2021/08/11 06:51:39;;;;;;;3.28;2.97;;;18.10;70.30;;;;;;5052576;28;20593;-89
2021/08/11 06:54:10;;;;;;;4.07;3.38;;;18.20;70.20;;;;;;5067413;28;20032;-86
2021/08/11 06:56:36;;;;;;;3.65;3.08;;;18.40;70.40;;;;;;5033207;28;20035;-84
2021/08/11 06:59:02;;;;;;;4.05;2.97;;;18.50;70.20;;;;;;5048670;28;20028;-83
2021/08/11 07:01:28;;;;;;;3.25;2.92;;;18.60;70.20;;;;;;5032031;28;20372;-82
2021/08/11 07:03:54;;;;;;;3.58;3.22;;;18.70;70.20;;;;;;5065655;28;20031;-84
2021/08/11 07:06:19;;;;;;;4.00;3.30;;;18.80;70.20;;;;;;5032009;28;20032;-83
2021/08/11 07:08:45;;;;;;;3.75;2.60;;;18.80;70.10;;;;;;5048498;28;20033;-82
2021/08/11 07:11:11;;;;;;;3.58;3.28;;;18.90;70.30;;;;;;5048630;28;20321;-84
2021/08/11 07:13:37;;;;;;;4.47;3.05;;;19.10;70.40;;;;;;5048437;28;20141;-83
2021/08/11 07:16:04;;;;;;;3.60;2.97;;;19.40;70.80;;;;;;5049571;28;20081;-85
2021/08/11 07:18:30;;;;;;;5.18;3.05;;;19.60;70.60;;;;;;5049946;28;20024;-83
2021/08/11 07:20:56;;;;;;;4.88;3.38;;;19.70;70.30;;;;;;5046021;28;20040;-92
2021/08/11 07:23:22;;;;;;;4.00;2.92;;;19.90;70.30;;;;;;5048705;28;20062;-95
2021/08/11 07:25:47;;;;;;;4.57;3.22;;;19.90;69.90;;;;;;5074494;28;20501;-90
2021/08/11 07:28:20;;;;;;;3.95;3.17;;;20.00;69.80;;;;;;5089636;28;20092;-91
2021/08/11 07:30:49;;;;;;;3.42;3.13;;;20.10;69.80;;;;;;5054489;28;20165;-87
2021/08/11 07:33:15;;;;;;;7.00;3.00;;;20.10;69.60;;;;;;5054573;28;20045;-90
2021/08/11 07:35:42;;;;;;;3.97;3.00;;;20.10;69.50;;;;;;5068007;28;20415;-87
2021/08/11 07:38:09;;;;;;;8.05;3.28;;;20.10;69.30;;;;;;5049809;28;20032;-91
2021/08/11 07:40:36;;;;;;;3.95;3.30;;;20.10;69.20;;;;;;5016615;28;20074;-92
2021/08/11 07:43:05;;;;;;;4.07;3.10;;;20.10;69.10;;;;;;5050620;28;20037;-93
2021/08/11 07:45:30;;;;;;;6.28;3.17;;;20.10;69.10;;;;;;5051110;28;20279;-88
2021/08/11 07:47:58;;;;;;;3.85;2.92;;;20.10;69.10;;;;;;5052745;28;20083;-91
2021/08/11 07:50:27;;;;;;;3.40;2.80;;;20.20;69.20;;;;;;5037976;28;20032;-90
2021/08/11 07:52:54;;;;;;;2.80;2.55;;;20.20;69.10;;;;;;5037583;28;20064;-94
2021/08/11 07:55:20;;;;;;;4.75;2.95;;;20.30;69.10;;;;;;5037922;28;20387;-89
2021/08/11 07:57:46;;;;;;;3.92;2.75;;;20.30;69.00;;;;;;5035918;28;20033;-85
2021/08/11 08:00:14;;;;;;;3.65;3.25;;;20.40;69.10;;;;;;5019331;28;20029;-86
2021/08/11 08:02:40;;;;;;;2.83;2.58;;;20.40;68.90;;;;;;5050628;28;20500;-87
2021/08/11 08:05:06;;;;;;;3.67;3.28;;;20.50;68.90;;;;;;5033696;28;20021;-93
2021/08/11 08:07:35;;;;;;;3.20;2.90;;;20.60;68.90;;;;;;5050737;28;20890;-88
2021/08/11 08:10:02;;;;;;;5.45;2.72;;;20.70;68.80;;;;;;5033519;28;20374;-90
2021/08/11 08:12:29;;;;;;;2.95;2.65;;;20.80;68.70;;;;;;5051658;28;20083;-87
2021/08/11 08:14:55;;;;;;;3.65;3.13;;;21.00;68.80;;;;;;5035045;28;20087;-86
2021/08/11 08:17:21;;;;;;;4.28;2.97;;;21.10;68.80;;;;;;5034636;28;20512;-90
2021/08/11 08:19:47;;;;;;;3.40;2.80;;;21.20;68.70;;;;;;5033485;28;20033;-86
2021/08/11 08:22:17;;;;;;;4.13;3.00;;;21.20;68.50;;;;;;5050592;28;20448;-83
2021/08/11 08:24:45;;;;;;;3.50;2.80;;;21.30;68.50;;;;;;5051344;28;20035;-87
2021/08/11 08:27:12;;;;;;;2.95;2.65;;;21.40;68.50;;;;;;5053036;28;20491;-90
2021/08/11 08:29:38;;;;;;;3.33;2.97;;;21.40;68.40;;;;;;5035465;28;20103;-89
2021/08/11 08:32:05;;;;;;;3.05;2.63;;;21.60;68.60;;;;;;5054331;28;20264;-87
2021/08/11 08:34:31;;;;;;;3.97;3.28;;;21.60;68.40;;;;;;5033202;28;20028;-85
2021/08/11 08:36:57;;;;;;;4.10;2.92;;;21.60;68.50;;;;;;5032457;28;20091;-88
2021/08/11 08:39:23;;;;;;;3.45;3.15;;;21.60;68.20;;;;;;5033904;28;20029;-87
2021/08/11 08:41:50;;;;;;;4.15;2.97;;;21.70;68.30;;;;;;5034568;28;20116;-89
2021/08/11 08:44:16;;;;;;;3.63;3.05;;;21.80;68.30;;;;;;5033857;28;20480;-88
2021/08/11 08:46:42;;;;;;;3.58;3.28;;;21.80;68.10;;;;;;5033899;28;20086;-89
2021/08/11 08:49:14;;;;;;;3.30;2.95;;;21.80;68.00;;;;;;5032327;28;20078;-86
2021/08/11 08:51:47;;;;;;;3.13;2.78;;;21.90;68.10;;;;;;5049626;28;20614;-88
2021/08/11 08:54:17;;;;;;;2.90;2.67;;;21.90;67.90;;;;;;5032226;28;20032;-85
2021/08/11 08:56:43;;;;;;;4.03;3.13;;;22.00;68.00;;;;;;5016841;28;20059;-87
2021/08/11 08:59:10;;;;;;;3.40;2.80;;;22.10;68.00;;;;;;5002786;28;20037;-84
2021/08/11 09:01:36;;;;;;;3.88;3.30;;;22.20;68.00;;;;;;5032509;28;20034;-87
2021/08/11 09:04:02;;;;;;;3.30;2.90;;;22.30;68.00;;;;;;5029001;28;20036;-87
2021/08/11 09:06:35;;;;;;;2.40;2.20;;;22.40;68.00;;;;;;5049995;28;20056;-86
2021/08/11 09:09:09;;;;;;;3.70;2.75;;;22.50;67.90;;;;;;5032249;28;20171;-87
2021/08/11 09:11:37;;;;;;;3.83;3.13;;;22.60;67.80;;;;;;5036365;28;20052;-82
2021/08/11 09:14:21;;;;;;;4.25;3.00;;;22.80;67.80;;;;;;5050945;28;20025;-86
2021/08/11 09:16:48;;;;;;;;;;;22.90;67.70;;;;;;5035165;28;20040;-90
2021/08/11 09:19:14;;;;;;;3.90;3.10;;;23.00;67.80;;;;;;5022002;28;20355;-86
2021/08/11 09:21:40;;;;;;;4.22;3.28;;;23.10;67.70;;;;;;5084787;22;20115;-76
2021/08/11 09:24:17;;;;;;;3.55;3.22;;;23.30;67.80;;;;;;5031533;28;20033;-76
2021/08/11 09:26:43;;;;;;;4.57;3.60;;;23.40;67.60;;;;;;5048372;28;20029;-75
2021/08/11 09:29:10;;;;;;;2.90;2.70;;;23.50;67.50;;;;;;5063557;28;20394;-75
2021/08/11 09:31:36;;;;;;;3.38;2.97;;;23.70;67.60;;;;;;5046812;28;20040;-75
2021/08/11 09:34:04;;;;;;;5.70;3.13;;;23.90;67.50;;;;;;5042265;28;20040;-76
2021/08/11 09:36:51;;;;;;;4.93;3.33;;;24.10;67.40;;;;;;5042265;28;20078;-77
2021/08/11 09:39:18;;;;;;;5.25;2.95;;;24.30;67.30;;;;;;5047460;28;20106;-76
2021/08/11 09:42:05;;;;;;;5.32;2.90;;;24.40;67.10;;;;;;5047055;28;20033;-74
2021/08/11 09:44:33;;;;;;;3.10;2.80;;;24.50;67.00;;;;;;5027650;28;20515;-75
2021/08/11 09:47:13;;;;;;;3.83;3.10;;;24.60;67.10;;;;;;5035711;28;20115;-76
2021/08/11 09:49:39;;;;;;;5.30;3.38;;;24.70;67.00;;;;;;5044810;28;20379;-74
2021/08/11 09:52:06;;;;;;;3.03;2.72;;;24.90;67.20;;;;;;5044718;28;20037;-74
2021/08/11 09:54:32;;;;;;;3.55;3.20;;;25.00;66.90;;;;;;5041129;28;20458;-76
2021/08/11 09:56:58;;;;;;;3.40;2.72;;;25.10;66.70;;;;;;5027195;28;20110;-75
2021/08/11 09:59:25;;;;;;;3.92;2.95;;;25.10;66.50;;;;;;5007516;28;20448;-75
2021/08/11 10:01:51;;;;;;;4.00;3.20;;;25.30;66.40;;;;;;5009870;28;20196;-77
2021/08/11 10:04:19;;;;;;;4.18;2.70;;;25.40;66.30;;;;;;5019437;28;20526;-76
2021/08/11 10:06:46;;;;;;;3.72;3.00;;;25.50;66.20;;;;;;5024016;28;20606;-76
2021/08/11 10:09:18;;;;;;;3.08;2.63;;;25.60;66.00;;;;;;5006154;28;20020;-76
2021/08/11 10:11:44;;;;;;;3.90;2.78;;;25.70;65.80;;;;;;5010608;28;20348;-75
2021/08/11 10:14:12;;;;;;;4.43;2.72;;;25.80;65.60;;;;;;5027146;28;20040;-74
2021/08/11 10:16:38;;;;;;;5.05;3.35;;;25.90;65.40;;;;;;5026919;28;20430;-76
2021/08/11 10:19:07;;;;;;;2.97;2.40;;;26.00;65.20;;;;;;5026638;28;20060;-75
2021/08/11 10:21:36;;;;;;;3.78;2.80;;;26.00;65.00;;;;;;5044652;28;20553;-75
2021/08/11 10:24:04;;;;;;;4.50;2.63;;;26.00;64.90;;;;;;5040214;28;20025;-76
2021/08/11 10:26:31;;;;;;;4.55;3.20;;;26.10;65.00;;;;;;5026941;28;20061;-75
2021/08/11 10:28:58;;;;;;;3.78;2.78;;;26.10;64.90;;;;;;5023450;28;20156;-77
2021/08/11 10:31:24;;;;;;;4.18;3.30;;;26.10;64.80;;;;;;5001569;28;20047;-73
2021/08/11 10:33:51;;;;;;;3.97;3.22;;;26.10;64.70;;;;;;5026696;28;20528;-73
2021/08/11 10:36:18;;;;;;;7.90;3.28;;;26.20;64.70;;;;;;5026645;28;20536;-74
2021/08/11 10:38:45;;;;;;;4.45;2.80;;;26.20;64.70;;;;;;5026649;28;20036;-75
2021/08/11 10:41:12;;;;;;;4.40;2.97;;;26.20;64.50;;;;;;5044726;28;20029;-74
2021/08/11 10:43:40;;;;;;;3.80;3.33;;;26.30;64.50;;;;;;5010072;28;20036;-75
2021/08/11 10:46:08;;;;;;;3.55;3.05;;;26.30;64.30;;;;;;5026265;28;20040;-74
2021/08/11 10:48:35;;;;;;;4.28;2.90;;;26.30;64.20;;;;;;5042131;28;20423;-73
2021/08/11 10:51:01;;;;;;;4.15;2.97;;;26.40;64.20;;;;;;5026811;28;21079;-73
2021/08/11 10:53:28;;;;;;;3.75;2.80;;;26.40;64.20;;;;;;5025782;28;20375;-76
2021/08/11 10:55:56;;;;;;;3.00;2.70;;;26.50;64.20;;;;;;5025409;28;20040;-75
2021/08/11 10:58:51;;;;;;;5.13;3.13;;;26.50;64.00;;;;;;5041694;28;20407;-72
2021/08/11 11:01:33;;;;;;;5.53;3.78;;;26.60;63.80;;;;;;5027187;28;20124;-74
2021/08/11 11:04:00;;;;;;;4.90;3.45;;;26.60;63.70;;;;;;5025506;28;20033;-74
2021/08/11 11:06:50;;;;;;;4.03;3.30;;;26.80;63.80;;;;;;5044037;28;20029;-72
2021/08/11 11:09:22;;;;;;;3.58;2.90;;;26.90;63.60;;;;;;5041473;28;20491;-73
2021/08/11 11:11:49;;;;;;;3.53;2.95;;;27.10;63.40;;;;;;5026212;28;20162;-73
2021/08/11 11:14:53;;;;;;;5.55;2.95;;;27.20;63.20;;;;;;5043777;28;20064;-74
2021/08/11 11:17:58;;;;;;;3.45;2.88;;;27.30;63.10;;;;;;4986263;28;20459;-73
2021/08/11 11:20:24;;;;;;;6.68;3.42;;;27.40;62.90;;;;;;5000353;28;20068;-75
2021/08/11 11:22:58;;;;;;;4.15;2.72;;;27.60;62.90;;;;;;5025181;28;20179;-74
2021/08/11 11:25:57;;;;;;;3.42;3.13;;;27.70;62.60;;;;;;5026261;28;20053;-74
2021/08/11 11:29:02;;;;;;;3.30;3.00;;;27.80;62.60;;;;;;5027002;28;20029;-74
2021/08/11 11:31:41;;;;;;;3.40;3.10;;;27.80;62.40;;;;;;5044197;28;20079;-73
2021/08/11 11:34:26;;;;;;;5.43;4.20;;;28.00;62.30;;;;;;5040726;28;20045;-75
2021/08/11 11:36:55;;;;;;;6.13;4.60;;;28.10;61.40;;;;;;5028838;28;20037;-73
2021/08/11 11:39:23;;;;;;;6.38;4.05;;;28.10;60.80;;;;;;5048807;28;20021;-72
2021/08/11 11:42:07;;;;;;;4.63;3.58;;;28.10;61.40;;;;;;5014033;28;20025;-73
2021/08/11 11:44:57;;;;;;;4.78;4.10;;;28.10;60.70;;;;;;5006433;28;20037;-72
2021/08/11 11:47:36;;;;;;;7.38;3.50;;;28.20;60.60;;;;;;5023875;28;20051;-73
2021/08/11 11:50:21;;;;;;;5.20;3.20;;;28.20;60.40;;;;;;5005374;28;20472;-76
2021/08/11 11:53:01;;;;;;;4.93;3.50;;;28.30;60.40;;;;;;5025620;28;20094;-72
2021/08/11 11:55:32;;;;;;;3.95;3.50;;;28.40;60.40;;;;;;5012016;28;20037;-73
2021/08/11 11:58:03;;;;;;;5.00;3.10;;;28.50;60.40;;;;;;5041110;28;20369;-72
2021/08/11 12:00:30;;;;;;;4.82;3.10;;;28.70;60.30;;;;;;5031369;28;20033;-72
2021/08/11 12:02:57;;;;;;;5.47;3.22;;;28.90;60.10;;;;;;5030783;28;20040;-74
2021/08/11 12:05:24;;;;;;;5.45;3.20;;;29.10;59.80;;;;;;5029280;28;20033;-72
2021/08/11 12:07:50;;;;;;;4.07;2.97;;;29.20;59.60;;;;;;5029827;28;20501;-74
2021/08/11 12:10:25;;;;;;;5.63;3.42;;;29.20;59.50;;;;;;5029761;28;20032;-73
2021/08/11 12:13:04;;;;;;;4.85;3.10;;;29.40;59.40;;;;;;5045701;28;20483;-76
2021/08/11 12:15:39;;;;;;;4.50;2.95;;;29.50;59.40;;;;;;5030452;28;20542;-73
2021/08/11 12:18:22;;;;;;;4.25;3.50;;;29.70;59.10;;;;;;5023367;28;20044;-73
2021/08/11 12:20:54;;;;;;;5.35;3.20;;;30.00;58.90;;;;;;5026063;28;20044;-72
2021/08/11 12:23:29;;;;;;;4.75;3.08;;;30.20;58.80;;;;;;5025355;28;20033;-72
2021/08/11 12:26:00;;;;;;;4.60;3.20;;;30.40;58.40;;;;;;5043406;28;20571;-72
2021/08/11 12:28:40;;;;;;;4.22;3.00;;;30.60;58.30;;;;;;5041640;28;20025;-76
2021/08/11 12:31:19;;;;;;;4.38;3.20;;;30.60;58.00;;;;;;5025518;28;20049;-74
2021/08/11 12:33:48;;;;;;;7.63;3.00;;;30.70;57.80;;;;;;4998480;28;20034;-75
2021/08/11 12:36:20;;;;;;;4.65;3.40;;;30.70;57.70;;;;;;5017524;28;20468;-73
2021/08/11 12:39:07;;;;;;;5.28;2.78;;;30.60;57.60;;;;;;5025277;28;20033;-74
2021/08/11 12:41:35;;;;;;;4.20;3.17;;;30.60;57.70;;;;;;5021676;28;20052;-72
2021/08/11 12:44:12;;;;;;;5.53;3.17;;;30.60;57.70;;;;;;5039661;28;20518;-72
2021/08/11 12:46:44;;;;;;;3.60;3.17;;;30.60;57.70;;;;;;5028607;28;20032;-72
2021/08/11 12:49:16;;;;;;;6.18;2.90;;;30.70;57.70;;;;;;5044455;28;20063;-73
2021/08/11 12:51:42;;;;;;;6.75;2.88;;;30.70;57.50;;;;;;5046495;28;20044;-72
2021/08/11 12:54:09;;;;;;;3.00;2.70;;;30.80;57.50;;;;;;5024842;28;20040;-72
2021/08/11 12:56:57;;;;;;;3.15;2.70;;;30.80;57.30;;;;;;5009025;28;20044;-75
2021/08/11 12:59:23;;;;;;;3.97;2.47;;;30.80;57.20;;;;;;5025344;28;20128;-71
2021/08/11 13:01:49;;;;;;;3.78;2.85;;;30.80;57.20;;;;;;5025115;28;20538;-74